createdAt,value
2019-01-15T00:00:53.800Z,1.50
2019-01-15T00:01:53.749Z,1.60
2019-01-15T00:02:53.741Z,1.60
2019-01-15T00:03:53.742Z,1.60
2019-01-15T00:04:53.716Z,1.80
2019-01-15T00:05:53.745Z,1.30
2019-01-15T00:06:53.714Z,1.20
2019-01-15T00:07:53.685Z,1.50
2019-01-15T00:08:53.678Z,1.60
2019-01-15T00:09:53.715Z,1.10
2019-01-15T00:10:53.656Z,1.50
2019-01-15T00:11:53.647Z,2.30
2019-01-15T00:12:53.633Z,1.90
2019-01-15T00:13:53.621Z,1.70
2019-01-15T00:14:53.633Z,1.40
2019-01-15T00:15:53.609Z,1.90
2019-01-15T00:16:53.617Z,1.60
2019-01-15T00:17:53.578Z,1.40
2019-01-15T00:18:53.565Z,1.80
2019-01-15T00:19:53.551Z,1.80
2019-01-15T00:20:53.541Z,1.70
2019-01-15T00:21:53.740Z,1.50
2019-01-15T00:22:53.532Z,1.70
2019-01-15T00:23:53.505Z,1.70
2019-01-15T00:24:53.520Z,1.20
2019-01-15T00:25:53.521Z,1.40
2019-01-15T00:26:53.510Z,1.40
2019-01-15T00:27:53.478Z,1.40
2019-01-15T00:28:53.448Z,1.50
2019-01-15T00:29:53.446Z,1.60
2019-01-15T00:30:53.459Z,1.50
2019-01-15T00:31:53.468Z,1.30
2019-01-15T00:32:53.427Z,1.20
2019-01-15T00:33:53.393Z,1.40
2019-01-15T00:34:53.386Z,1.70
2019-01-15T00:35:53.378Z,1.20
2019-01-15T00:36:53.395Z,1.30
2019-01-15T00:37:53.380Z,1.40
2019-01-15T00:38:53.363Z,1.60
2019-01-15T00:39:53.329Z,2.00
2019-01-15T00:40:53.324Z,1.40
2019-01-15T00:41:53.308Z,1.50
2019-01-15T00:42:53.331Z,1.50
2019-01-15T00:43:53.287Z,1.30
2019-01-15T00:44:53.296Z,1.20
2019-01-15T00:45:53.262Z,1.10
2019-01-15T00:46:53.259Z,1.60
2019-01-15T00:47:53.265Z,1.40
2019-01-15T00:48:53.233Z,1.40
2019-01-15T00:49:53.222Z,1.60
2019-01-15T00:50:53.230Z,1.70
2019-01-15T00:51:53.201Z,1.40
2019-01-15T00:52:53.223Z,1.30
2019-01-15T00:53:53.176Z,1.60
2019-01-15T00:54:53.169Z,2.10
2019-01-15T00:55:53.157Z,1.50
2019-01-15T00:56:53.161Z,1.30
2019-01-15T00:57:53.162Z,1.60
2019-01-15T00:58:53.123Z,1.20
2019-01-15T00:59:53.107Z,1.30
2019-01-15T01:00:53.095Z,1.10
2019-01-15T01:01:53.091Z,1.70
2019-01-15T01:02:53.123Z,1.60
2019-01-15T01:03:53.093Z,1.90
2019-01-15T01:04:53.059Z,1.70
2019-01-15T01:05:53.074Z,1.60
2019-01-15T01:06:53.038Z,1.50
2019-01-15T01:07:53.026Z,1.80
2019-01-15T01:08:53.033Z,1.20
2019-01-15T01:09:53.003Z,1.40
2019-01-15T01:10:53.014Z,1.70
2019-01-15T01:11:52.979Z,1.20
2019-01-15T01:12:53.006Z,1.50
2019-01-15T01:13:52.961Z,1.60
2019-01-15T01:14:52.966Z,1.30
2019-01-15T01:15:52.942Z,1.30
2019-01-15T01:16:52.921Z,1.30
2019-01-15T01:17:52.938Z,1.70
2019-01-15T01:18:52.905Z,1.30
2019-01-15T01:19:52.915Z,1.00
2019-01-15T01:20:52.912Z,1.30
2019-01-15T01:21:52.878Z,1.30
2019-01-15T01:22:53.556Z,1.80
2019-01-15T01:23:52.875Z,1.30
2019-01-15T01:24:52.835Z,1.80
2019-01-15T01:25:52.828Z,1.60
2019-01-15T01:26:52.855Z,1.50
2019-01-15T01:27:52.801Z,1.50
2019-01-15T01:28:52.842Z,1.80
2019-01-15T01:29:52.785Z,1.40
2019-01-15T01:30:52.768Z,1.60
2019-01-15T01:31:52.763Z,1.50
2019-01-15T01:32:52.779Z,1.40
2019-01-15T01:33:52.764Z,1.60
2019-01-15T01:34:52.755Z,1.90
2019-01-15T01:35:52.712Z,1.40
2019-01-15T01:36:52.707Z,1.70
2019-01-15T01:37:52.697Z,1.60
2019-01-15T01:38:52.708Z,1.20
2019-01-15T01:39:52.702Z,1.10
2019-01-15T01:40:52.663Z,1.70
2019-01-15T01:41:52.644Z,1.40
2019-01-15T01:42:52.636Z,1.50
2019-01-15T01:43:52.646Z,1.40
2019-01-15T01:44:52.665Z,1.80
2019-01-15T01:45:52.609Z,1.50
2019-01-15T01:46:52.613Z,1.40
2019-01-15T01:47:52.585Z,1.30
2019-01-15T01:48:52.661Z,1.60
2019-01-15T01:49:52.563Z,1.30
2019-01-15T01:50:52.570Z,1.80
2019-01-15T01:51:52.535Z,1.20
2019-01-15T01:52:52.531Z,1.40
2019-01-15T01:53:52.543Z,1.70
2019-01-15T01:54:52.505Z,1.20
2019-01-15T01:55:52.489Z,1.60
2019-01-15T01:56:53.000Z,1.30
2019-01-15T01:57:52.491Z,1.40
2019-01-15T01:58:52.463Z,1.40
2019-01-15T01:59:52.452Z,1.60
2019-01-15T02:00:52.456Z,1.90
2019-01-15T02:01:52.481Z,1.30
2019-01-15T02:02:52.413Z,1.20
2019-01-15T02:03:52.440Z,1.50
2019-01-15T02:04:52.395Z,1.30
2019-01-15T02:05:52.401Z,1.60
2019-01-15T02:06:52.377Z,1.50
2019-01-15T02:07:52.388Z,1.20
2019-01-15T02:08:52.387Z,1.20
2019-01-15T02:09:52.348Z,1.40
2019-01-15T02:10:52.367Z,1.40
2019-01-15T02:11:52.318Z,1.40
2019-01-15T02:12:52.314Z,1.70
2019-01-15T02:13:52.312Z,1.80
2019-01-15T02:14:52.282Z,1.80
2019-01-15T02:15:52.309Z,1.60
2019-01-15T02:16:52.289Z,1.60
2019-01-15T02:17:52.260Z,1.10
2019-01-15T02:18:52.241Z,1.10
2019-01-15T02:19:52.254Z,1.40
2019-01-15T02:20:52.245Z,1.10
2019-01-15T02:21:52.212Z,1.70
2019-01-15T02:22:52.197Z,1.40
2019-01-15T02:23:52.224Z,1.40
2019-01-15T02:24:52.172Z,1.60
2019-01-15T02:25:52.188Z,1.30
2019-01-15T02:26:52.159Z,1.60
2019-01-15T02:27:52.170Z,1.20
2019-01-15T02:28:52.178Z,1.40
2019-01-15T02:29:52.123Z,1.20
2019-01-15T02:30:52.102Z,1.50
2019-01-15T02:31:52.129Z,1.50
2019-01-15T02:32:52.100Z,2.10
2019-01-15T02:33:52.118Z,1.90
2019-01-15T02:34:52.066Z,1.20
2019-01-15T02:35:52.050Z,1.80
2019-01-15T02:36:52.045Z,1.50
2019-01-15T02:37:52.096Z,2.20
2019-01-15T02:38:52.021Z,1.40
2019-01-15T02:39:52.008Z,1.30
2019-01-15T02:40:51.994Z,1.50
2019-01-15T02:41:51.989Z,1.70
2019-01-15T02:42:52.014Z,1.70
2019-01-15T02:43:51.983Z,1.80
2019-01-15T02:44:51.981Z,1.90
2019-01-15T02:45:51.978Z,1.90
2019-01-15T02:46:51.931Z,1.90
2019-01-15T02:47:51.919Z,1.90
2019-01-15T02:48:51.907Z,1.50
2019-01-15T02:49:51.913Z,1.60
2019-01-15T02:50:52.501Z,1.70
2019-01-15T02:51:51.877Z,1.30
2019-01-15T02:52:51.874Z,1.80
2019-01-15T02:53:51.855Z,1.80
2019-01-15T02:54:51.843Z,1.50
2019-01-15T02:55:51.903Z,1.80
2019-01-15T02:56:51.815Z,2.20
2019-01-15T02:57:51.815Z,2.00
2019-01-15T02:58:51.804Z,2.00
2019-01-15T02:59:51.789Z,1.70
2019-01-15T03:00:51.808Z,1.90
2019-01-15T03:01:51.780Z,1.90
2019-01-15T03:02:51.761Z,1.60
2019-01-15T03:03:51.752Z,1.80
2019-01-15T03:04:51.732Z,1.80
2019-01-15T03:05:51.761Z,1.90
2019-01-15T03:06:51.709Z,1.60
2019-01-15T03:07:51.723Z,2.00
2019-01-15T03:08:51.727Z,1.60
2019-01-15T03:09:51.685Z,1.90
2019-01-15T03:10:51.671Z,2.30
2019-01-15T03:11:51.686Z,1.80
2019-01-15T03:12:55.483Z,1.90
2019-01-15T03:13:51.661Z,2.10
2019-01-15T03:14:51.646Z,1.80
2019-01-15T03:15:51.611Z,1.70
2019-01-15T03:16:51.606Z,2.00
2019-01-15T03:17:51.592Z,1.80
2019-01-15T03:18:51.610Z,2.00
2019-01-15T03:19:51.598Z,1.80
2019-01-15T03:20:51.587Z,1.90
2019-01-15T03:21:51.542Z,1.80
2019-01-15T03:22:51.535Z,1.80
2019-01-15T03:23:51.525Z,2.10
2019-01-15T03:24:51.517Z,1.80
2019-01-15T03:25:51.545Z,2.00
2019-01-15T03:26:51.486Z,2.00
2019-01-15T03:27:51.493Z,1.80
2019-01-15T03:28:51.488Z,1.90
2019-01-15T03:29:51.458Z,1.50
2019-01-15T03:30:51.447Z,1.70
2019-01-15T03:31:51.481Z,1.70
2019-01-15T03:32:51.434Z,1.80
2019-01-15T03:33:51.411Z,1.80
2019-01-15T03:34:51.395Z,1.50
2019-01-15T03:35:51.419Z,1.50
2019-01-15T03:36:51.382Z,1.70
2019-01-15T03:37:51.366Z,1.80
2019-01-15T03:38:51.390Z,2.00
2019-01-15T03:39:51.346Z,1.60
2019-01-15T03:40:51.352Z,1.60
2019-01-15T03:41:51.327Z,1.90
2019-01-15T03:42:51.318Z,2.00
2019-01-15T03:43:51.318Z,1.90
2019-01-15T03:44:51.308Z,1.50
2019-01-15T03:45:51.322Z,1.60
2019-01-15T03:46:51.269Z,1.80
2019-01-15T03:47:51.261Z,1.40
2019-01-15T03:48:51.249Z,1.60
2019-01-15T03:49:51.242Z,1.80
2019-01-15T03:50:51.292Z,1.60
2019-01-15T03:51:51.221Z,1.90
2019-01-15T03:52:51.244Z,2.00
2019-01-15T03:53:51.191Z,2.40
2019-01-15T03:54:51.180Z,1.70
2019-01-15T03:55:51.169Z,1.60
2019-01-15T03:56:51.211Z,1.40
2019-01-15T03:57:51.146Z,2.10
2019-01-15T03:58:51.139Z,1.80
2019-01-15T03:59:51.126Z,1.60
2019-01-15T04:00:51.117Z,1.50
2019-01-15T04:01:51.129Z,1.60
2019-01-15T04:02:51.143Z,2.20
2019-01-15T04:03:51.080Z,1.60
2019-01-15T04:04:51.076Z,1.80
2019-01-15T04:05:51.062Z,1.80
2019-01-15T04:06:51.048Z,1.70
2019-01-15T04:07:51.066Z,1.70
2019-01-15T04:08:51.083Z,2.00
2019-01-15T04:09:51.012Z,1.70
2019-01-15T04:10:51.003Z,1.70
2019-01-15T04:11:51.024Z,1.60
2019-01-15T04:12:50.994Z,1.90
2019-01-15T04:13:50.972Z,1.70
2019-01-15T04:14:51.017Z,1.70
2019-01-15T04:15:50.956Z,1.80
2019-01-15T04:16:50.939Z,1.60
2019-01-15T04:17:50.935Z,1.70
2019-01-15T04:18:50.917Z,1.80
2019-01-15T04:19:50.940Z,2.20
2019-01-15T04:20:50.952Z,1.80
2019-01-15T04:21:50.887Z,1.60
2019-01-15T04:22:50.867Z,1.60
2019-01-15T04:23:50.864Z,2.20
2019-01-15T04:24:50.854Z,2.10
2019-01-15T04:25:50.895Z,2.00
2019-01-15T04:26:50.871Z,2.00
2019-01-15T04:27:50.821Z,1.90
2019-01-15T04:28:50.814Z,1.90
2019-01-15T04:29:50.804Z,2.00
2019-01-15T04:30:50.815Z,1.90
2019-01-15T04:31:50.766Z,1.90
2019-01-15T04:32:50.774Z,1.80
2019-01-15T04:33:50.770Z,1.60
2019-01-15T04:34:50.741Z,1.80
2019-01-15T04:35:50.755Z,1.60
2019-01-15T04:36:50.722Z,1.80
2019-01-15T04:37:50.735Z,1.50
2019-01-15T04:38:50.690Z,2.00
2019-01-15T04:39:50.705Z,1.60
2019-01-15T04:40:50.708Z,1.50
2019-01-15T04:41:50.677Z,2.10
2019-01-15T04:42:50.649Z,2.10
2019-01-15T04:43:50.639Z,2.30
2019-01-15T04:44:50.630Z,1.90
2019-01-15T04:45:50.667Z,2.20
2019-01-15T04:46:50.634Z,2.20
2019-01-15T04:47:50.591Z,2.00
2019-01-15T04:48:50.586Z,2.00
2019-01-15T04:49:50.576Z,2.00
2019-01-15T04:50:50.598Z,2.00
2019-01-15T04:51:50.599Z,1.90
2019-01-15T04:52:50.550Z,1.60
2019-01-15T04:53:50.525Z,1.90
2019-01-15T04:54:50.521Z,1.80
2019-01-15T04:55:50.509Z,2.60
2019-01-15T04:56:50.530Z,2.60
2019-01-15T04:57:50.479Z,3.60
2019-01-15T04:58:50.468Z,2.20
2019-01-15T04:59:50.460Z,1.90
2019-01-15T05:00:50.445Z,2.40
2019-01-15T05:01:50.465Z,1.90
2019-01-15T05:02:50.456Z,2.00
2019-01-15T05:03:50.422Z,1.60
2019-01-15T05:04:50.409Z,2.00
2019-01-15T05:05:50.432Z,2.10
2019-01-15T05:06:50.388Z,2.00
2019-01-15T05:07:50.375Z,1.90
2019-01-15T05:08:50.379Z,1.90
2019-01-15T05:09:50.355Z,1.50
2019-01-15T05:10:50.371Z,1.80
2019-01-15T05:11:50.334Z,1.80
2019-01-15T05:12:50.327Z,1.80
2019-01-15T05:13:50.338Z,2.00
2019-01-15T05:14:50.308Z,1.70
2019-01-15T05:15:50.282Z,2.10
2019-01-15T05:16:50.269Z,1.60
2019-01-15T05:17:50.259Z,2.10
2019-01-15T05:18:50.288Z,2.30
2019-01-15T05:19:50.236Z,2.00
2019-01-15T05:20:50.290Z,2.10
2019-01-15T05:21:50.221Z,2.00
2019-01-15T05:22:50.228Z,2.20
2019-01-15T05:23:50.195Z,1.60
2019-01-15T05:24:50.199Z,2.00
2019-01-15T05:25:50.202Z,1.70
2019-01-15T05:26:50.183Z,2.30
2019-01-15T05:27:50.255Z,1.70
2019-01-15T05:28:50.143Z,2.20
2019-01-15T05:29:50.135Z,2.10
2019-01-15T05:30:50.156Z,1.40
2019-01-15T05:31:50.106Z,2.10
2019-01-15T05:32:50.122Z,1.70
2019-01-15T05:33:50.086Z,2.30
2019-01-15T05:34:50.084Z,1.90
2019-01-15T05:35:50.091Z,1.90
2019-01-15T05:36:50.054Z,1.50
2019-01-15T05:37:50.049Z,2.20
2019-01-15T05:38:50.058Z,1.90
2019-01-15T05:39:50.023Z,1.90
2019-01-15T05:40:50.040Z,2.20
2019-01-15T05:41:49.998Z,1.90
2019-01-15T05:42:49.989Z,2.10
2019-01-15T05:43:49.984Z,1.90
2019-01-15T05:44:50.018Z,2.10
2019-01-15T05:45:49.984Z,2.30
2019-01-15T05:46:49.946Z,2.20
2019-01-15T05:47:49.936Z,2.00
2019-01-15T05:48:49.925Z,2.10
2019-01-15T05:49:50.881Z,2.40
2019-01-15T05:50:49.946Z,2.10
2019-01-15T05:51:49.888Z,2.30
2019-01-15T05:52:49.886Z,2.10
2019-01-15T05:53:49.872Z,1.80
2019-01-15T05:54:49.859Z,2.20
2019-01-15T05:55:49.879Z,2.40
2019-01-15T05:56:49.867Z,2.30
2019-01-15T05:57:49.814Z,2.20
2019-01-15T05:58:50.492Z,2.40
2019-01-15T05:59:49.801Z,2.00
2019-01-15T06:00:49.815Z,2.50
2019-01-15T06:01:49.781Z,2.10
2019-01-15T06:02:50.928Z,2.10
2019-01-15T06:03:49.790Z,2.90
2019-01-15T06:04:49.744Z,2.50
2019-01-15T06:05:49.741Z,2.30
2019-01-15T06:06:49.727Z,1.90
2019-01-15T06:07:49.707Z,1.70
2019-01-15T06:08:49.766Z,2.00
2019-01-15T06:09:49.699Z,2.40
2019-01-15T06:10:49.681Z,2.60
2019-01-15T06:11:49.679Z,2.10
2019-01-15T06:12:49.666Z,2.80
2019-01-15T06:13:49.673Z,1.90
2019-01-15T06:14:49.633Z,2.60
2019-01-15T06:15:49.658Z,2.00
2019-01-15T06:16:49.631Z,2.30
2019-01-15T06:17:49.606Z,2.10
2019-01-15T06:18:49.623Z,1.80
2019-01-15T06:19:49.615Z,2.30
2019-01-15T06:20:49.559Z,1.80
2019-01-15T06:21:49.557Z,2.20
2019-01-15T06:22:49.566Z,1.90
2019-01-15T06:23:49.541Z,2.00
2019-01-15T06:24:49.556Z,1.80
2019-01-15T06:25:49.517Z,2.10
2019-01-15T06:26:49.533Z,2.20
2019-01-15T06:27:49.504Z,1.70
2019-01-15T06:28:49.478Z,1.90
2019-01-15T06:29:49.489Z,1.60
2019-01-15T06:30:49.488Z,1.80
2019-01-15T06:31:49.475Z,1.80
2019-01-15T06:32:49.436Z,1.70
2019-01-15T06:33:49.436Z,2.00
2019-01-15T06:34:49.410Z,2.10
2019-01-15T06:35:49.420Z,1.80
2019-01-15T06:36:49.422Z,1.90
2019-01-15T06:37:49.385Z,1.70
2019-01-15T06:38:49.370Z,1.60
2019-01-15T06:39:49.371Z,2.80
2019-01-15T06:40:49.352Z,1.80
2019-01-15T06:41:49.392Z,1.60
2019-01-15T06:42:49.327Z,2.10
2019-01-15T06:43:50.124Z,2.00
2019-01-15T06:44:49.302Z,1.60
2019-01-15T06:45:49.292Z,1.90
2019-01-15T06:46:49.305Z,2.00
2019-01-15T06:47:49.282Z,1.60
2019-01-15T06:48:49.258Z,1.70
2019-01-15T06:49:49.280Z,2.10
2019-01-15T06:50:49.236Z,2.50
2019-01-15T06:51:49.219Z,2.00
2019-01-15T06:52:49.217Z,1.60
2019-01-15T06:53:49.249Z,1.60
2019-01-15T06:54:49.219Z,2.10
2019-01-15T06:55:49.190Z,2.20
2019-01-15T06:56:49.167Z,2.00
2019-01-15T06:57:49.191Z,1.80
2019-01-15T06:58:49.153Z,2.00
2019-01-15T06:59:49.157Z,2.00
2019-01-15T07:00:49.168Z,1.40
2019-01-15T07:01:49.116Z,2.50
2019-01-15T07:02:49.101Z,2.20
2019-01-15T07:03:49.094Z,1.80
2019-01-15T07:04:49.083Z,1.40
2019-01-15T07:05:49.122Z,1.50
2019-01-15T07:06:49.056Z,2.10
2019-01-15T07:07:49.076Z,1.60
2019-01-15T07:08:49.041Z,1.90
2019-01-15T07:09:49.057Z,1.40
2019-01-15T07:10:49.022Z,1.70
2019-01-15T07:11:49.068Z,1.60
2019-01-15T07:12:48.997Z,1.70
2019-01-15T07:13:48.997Z,1.70
2019-01-15T07:14:48.974Z,1.50
2019-01-15T07:15:48.961Z,1.50
2019-01-15T07:16:48.984Z,1.40
2019-01-15T07:17:48.963Z,1.90
2019-01-15T07:18:48.927Z,2.20
2019-01-15T07:19:48.919Z,2.00
2019-01-15T07:20:48.909Z,2.30
2019-01-15T07:21:48.929Z,2.40
2019-01-15T07:22:48.881Z,1.90
2019-01-15T07:23:48.939Z,4.50
2019-01-15T07:24:48.860Z,3.50
2019-01-15T07:25:48.873Z,2.70
2019-01-15T07:26:48.850Z,2.50
2019-01-15T07:27:48.856Z,2.50
2019-01-15T07:28:48.810Z,1.80
2019-01-15T07:29:48.856Z,2.00
2019-01-15T07:30:48.795Z,1.80
2019-01-15T07:31:48.786Z,1.70
2019-01-15T07:32:48.775Z,1.60
2019-01-15T07:33:48.789Z,1.80
2019-01-15T07:34:48.749Z,2.70
2019-01-15T07:35:48.759Z,2.40
2019-01-15T07:36:48.725Z,1.70
2019-01-15T07:37:51.509Z,1.70
2019-01-15T07:38:48.739Z,1.80
2019-01-15T07:39:48.692Z,2.40
2019-01-15T07:40:48.712Z,1.80
2019-01-15T07:41:48.696Z,1.70
2019-01-15T07:42:48.665Z,2.00
2019-01-15T07:43:48.699Z,1.80
2019-01-15T07:44:48.634Z,1.80
2019-01-15T07:45:48.630Z,1.90
2019-01-15T07:46:49.520Z,2.00
2019-01-15T07:47:48.624Z,2.20
2019-01-15T07:48:48.615Z,1.50
2019-01-15T07:49:48.619Z,1.60
2019-01-15T07:50:48.573Z,1.80
2019-01-15T07:51:48.565Z,1.80
2019-01-15T07:52:48.551Z,2.30
2019-01-15T07:53:48.565Z,2.00
2019-01-15T07:54:48.559Z,1.70
2019-01-15T07:55:48.513Z,1.60
2019-01-15T07:56:48.511Z,2.60
2019-01-15T07:57:48.499Z,2.20
2019-01-15T07:58:48.485Z,1.80
2019-01-15T07:59:48.525Z,1.90
2019-01-15T08:00:48.463Z,2.10
2019-01-15T08:01:48.445Z,1.90
2019-01-15T08:02:48.453Z,2.00
2019-01-15T08:03:48.457Z,1.80
2019-01-15T08:04:48.455Z,2.50
2019-01-15T08:05:48.433Z,3.00
2019-01-15T08:06:48.391Z,1.70
2019-01-15T08:07:48.413Z,3.40
2019-01-15T08:08:48.374Z,1.70
2019-01-15T08:09:48.381Z,1.80
2019-01-15T08:10:48.350Z,2.70
2019-01-15T08:11:48.399Z,2.60
2019-01-15T08:12:48.327Z,2.20
2019-01-15T08:13:48.330Z,3.70
2019-01-15T08:14:48.305Z,3.50
2019-01-15T08:15:48.302Z,3.80
2019-01-15T08:16:48.311Z,4.30
2019-01-15T08:17:48.302Z,5.00
2019-01-15T08:18:48.262Z,2.60
2019-01-15T08:19:48.281Z,4.10
2019-01-15T08:20:48.239Z,2.70
2019-01-15T08:21:48.229Z,2.10
2019-01-15T08:22:48.218Z,2.90
2019-01-15T08:23:48.261Z,2.30
2019-01-15T08:24:48.191Z,1.80
2019-01-15T08:25:48.188Z,2.60
2019-01-15T08:26:48.183Z,2.00
2019-01-15T08:27:48.168Z,2.10
2019-01-15T08:28:48.201Z,2.90
2019-01-15T08:29:48.167Z,2.50
2019-01-15T08:30:48.133Z,2.50
2019-01-15T08:31:48.131Z,3.00
2019-01-15T08:32:48.108Z,2.00
2019-01-15T08:33:48.130Z,2.20
2019-01-15T08:34:48.087Z,2.60
2019-01-15T08:35:48.137Z,3.90
2019-01-15T08:36:48.069Z,2.90
2019-01-15T08:37:48.053Z,4.40
2019-01-15T08:38:48.051Z,3.80
2019-01-15T08:39:48.031Z,4.70
2019-01-15T08:40:48.059Z,2.60
2019-01-15T08:41:48.032Z,3.30
2019-01-15T08:42:48.027Z,2.30
2019-01-15T08:43:47.986Z,2.70
2019-01-15T08:44:47.978Z,2.70
2019-01-15T08:45:47.968Z,3.00
2019-01-15T08:46:47.956Z,2.30
2019-01-15T08:47:47.999Z,3.40
2019-01-15T08:48:47.934Z,1.70
2019-01-15T08:49:47.925Z,2.40
2019-01-15T08:50:47.918Z,3.20
2019-01-15T08:51:47.902Z,2.00
2019-01-15T08:52:47.917Z,2.00
2019-01-15T08:53:47.949Z,2.10
2019-01-15T08:54:47.871Z,2.20
2019-01-15T08:55:47.864Z,3.10
2019-01-15T08:56:47.844Z,2.20
2019-01-15T08:57:47.839Z,2.00
2019-01-15T08:58:47.857Z,2.20
2019-01-15T08:59:47.827Z,1.90
2019-01-15T09:00:47.828Z,1.90
2019-01-15T09:01:47.798Z,2.00
2019-01-15T09:02:47.785Z,2.10
2019-01-15T09:03:47.772Z,1.60
2019-01-15T09:04:47.780Z,2.10
2019-01-15T09:05:47.837Z,2.00
2019-01-15T09:06:47.738Z,1.80
2019-01-15T09:07:47.736Z,2.00
2019-01-15T09:08:47.751Z,2.20
2019-01-15T09:09:47.708Z,3.30
2019-01-15T09:10:47.689Z,6.40
2019-01-15T09:11:47.705Z,3.70
2019-01-15T09:12:47.670Z,2.50
2019-01-15T09:13:47.692Z,2.10
2019-01-15T09:14:47.648Z,1.80
2019-01-15T09:15:47.638Z,2.00
2019-01-15T09:16:47.631Z,1.60
2019-01-15T09:17:47.636Z,1.40
2019-01-15T09:18:47.651Z,2.00
2019-01-15T09:19:47.596Z,1.60
2019-01-15T09:20:47.583Z,1.70
2019-01-15T09:21:47.578Z,2.50
2019-01-15T09:22:47.564Z,2.30
2019-01-15T09:23:47.627Z,1.70
2019-01-15T09:24:47.542Z,1.90
2019-01-15T09:25:47.529Z,1.80
2019-01-15T09:26:48.501Z,2.00
2019-01-15T09:27:47.510Z,1.50
2019-01-15T09:28:47.538Z,1.70
2019-01-15T09:29:47.512Z,2.10
2019-01-15T09:30:47.477Z,2.50
2019-01-15T09:31:47.461Z,2.40
2019-01-15T09:32:47.457Z,2.70
2019-01-15T09:33:47.488Z,3.60
2019-01-15T09:34:47.430Z,3.10
2019-01-15T09:35:47.441Z,4.20
2019-01-15T09:36:47.415Z,2.40
2019-01-15T09:37:47.437Z,1.70
2019-01-15T09:38:47.447Z,3.30
2019-01-15T09:39:47.414Z,2.30
2019-01-15T09:40:47.373Z,2.20
2019-01-15T09:41:47.382Z,2.00
2019-01-15T09:42:47.345Z,2.20
2019-01-15T09:43:47.333Z,1.80
2019-01-15T09:44:47.359Z,2.60
2019-01-15T09:45:47.310Z,2.50
2019-01-15T09:46:47.979Z,2.30
2019-01-15T09:47:47.285Z,2.70
2019-01-15T09:48:47.285Z,2.60
2019-01-15T09:49:47.296Z,2.30
2019-01-15T09:50:47.282Z,1.70
2019-01-15T09:51:47.245Z,2.30
2019-01-15T09:52:47.252Z,2.40
2019-01-15T09:53:47.230Z,2.70
2019-01-15T09:54:47.215Z,2.60
2019-01-15T09:55:47.229Z,2.70
2019-01-15T09:56:47.193Z,3.10
2019-01-15T09:57:47.180Z,2.40
2019-01-15T09:58:47.187Z,2.30
2019-01-15T09:59:47.155Z,2.30
2019-01-15T10:00:47.178Z,2.70
2019-01-15T10:01:47.136Z,2.70
2019-01-15T10:02:47.121Z,2.40
2019-01-15T10:03:47.113Z,2.70
2019-01-15T10:04:47.147Z,2.40
2019-01-15T10:05:47.098Z,2.90
2019-01-15T10:06:47.086Z,2.80
2019-01-15T10:07:47.080Z,2.60
2019-01-15T10:08:47.084Z,2.80
2019-01-15T10:09:47.055Z,2.30
2019-01-15T10:10:47.054Z,2.30
2019-01-15T10:11:47.028Z,2.10
2019-01-15T10:12:47.022Z,1.80
2019-01-15T10:13:47.051Z,1.90
2019-01-15T10:14:46.997Z,2.10
2019-01-15T10:15:46.984Z,1.90
2019-01-15T10:16:47.001Z,2.10
2019-01-15T10:17:47.003Z,2.10
2019-01-15T10:18:46.954Z,2.20
2019-01-15T10:19:46.944Z,2.00
2019-01-15T10:20:46.960Z,2.30
2019-01-15T10:21:46.922Z,2.90
2019-01-15T10:22:46.936Z,2.70
2019-01-15T10:23:46.898Z,2.50
2019-01-15T10:24:46.899Z,2.60
2019-01-15T10:25:46.906Z,1.70
2019-01-15T10:26:46.866Z,2.40
2019-01-15T10:27:46.883Z,2.00
2019-01-15T10:28:46.842Z,2.00
2019-01-15T10:29:46.831Z,2.60
2019-01-15T10:30:46.840Z,3.50
2019-01-15T10:31:46.807Z,2.70
2019-01-15T10:32:46.825Z,2.80
2019-01-15T10:33:46.788Z,2.80
2019-01-15T10:34:46.801Z,2.20
2019-01-15T10:35:46.760Z,2.70
2019-01-15T10:36:46.779Z,2.70
2019-01-15T10:37:46.739Z,4.90
2019-01-15T10:38:46.766Z,3.00
2019-01-15T10:39:46.714Z,3.00
2019-01-15T10:40:46.701Z,3.20
2019-01-15T10:41:46.720Z,3.70
2019-01-15T10:42:46.706Z,2.80
2019-01-15T10:43:46.675Z,3.70
2019-01-15T10:44:48.826Z,3.00
2019-01-15T10:45:46.715Z,2.40
2019-01-15T10:46:46.662Z,3.00
2019-01-15T10:47:46.634Z,3.00
2019-01-15T10:48:46.634Z,3.10
2019-01-15T10:49:46.603Z,2.90
2019-01-15T10:50:46.630Z,3.10
2019-01-15T10:51:46.578Z,2.70
2019-01-15T10:52:46.573Z,2.50
2019-01-15T10:53:46.606Z,2.50
2019-01-15T10:54:46.572Z,2.50
2019-01-15T10:55:46.540Z,2.10
2019-01-15T10:56:46.530Z,2.80
2019-01-15T10:57:46.518Z,2.40
2019-01-15T10:58:46.559Z,2.60
2019-01-15T10:59:46.498Z,2.50
2019-01-15T11:00:46.512Z,2.50
2019-01-15T11:01:46.466Z,2.60
2019-01-15T11:02:46.482Z,3.30
2019-01-15T11:03:46.498Z,2.20
2019-01-15T11:04:46.435Z,2.70
2019-01-15T11:05:46.461Z,2.20
2019-01-15T11:06:46.420Z,2.00
2019-01-15T11:07:46.403Z,2.40
2019-01-15T11:08:46.424Z,2.50
2019-01-15T11:09:46.411Z,3.10
2019-01-15T11:10:46.401Z,4.20
2019-01-15T11:11:46.393Z,3.30
2019-01-15T11:12:46.352Z,2.60
2019-01-15T11:13:46.357Z,2.80
2019-01-15T11:14:46.356Z,2.20
2019-01-15T11:15:46.319Z,2.90
2019-01-15T11:16:46.336Z,2.30
2019-01-15T11:17:46.297Z,2.80
2019-01-15T11:18:46.288Z,4.00
2019-01-15T11:19:46.276Z,3.20
2019-01-15T11:20:46.303Z,4.50
2019-01-15T11:21:46.293Z,4.30
2019-01-15T11:22:46.249Z,2.80
2019-01-15T11:23:46.227Z,3.30
2019-01-15T11:24:46.230Z,3.00
2019-01-15T11:25:46.209Z,3.80
2019-01-15T11:26:46.253Z,3.40
2019-01-15T11:27:46.183Z,2.70
2019-01-15T11:28:46.177Z,3.20
2019-01-15T11:29:46.172Z,3.20
2019-01-15T11:30:46.161Z,2.70
2019-01-15T11:31:46.189Z,2.90
2019-01-15T11:32:46.158Z,2.90
2019-01-15T11:33:46.127Z,3.00
2019-01-15T11:34:46.112Z,3.10
2019-01-15T11:35:46.108Z,3.10
2019-01-15T11:36:46.113Z,2.80
2019-01-15T11:37:46.076Z,3.50
2019-01-15T11:38:46.135Z,4.10
2019-01-15T11:39:46.059Z,3.30
2019-01-15T11:40:46.955Z,4.20
2019-01-15T11:41:46.037Z,3.30
2019-01-15T11:42:46.031Z,2.80
2019-01-15T11:43:46.056Z,3.40
2019-01-15T11:44:46.019Z,3.10
2019-01-15T11:45:45.988Z,3.00
2019-01-15T11:46:45.984Z,2.80
2019-01-15T11:47:45.998Z,3.00
2019-01-15T11:48:45.965Z,3.10
2019-01-15T11:49:45.977Z,3.30
2019-01-15T11:50:45.961Z,4.20
2019-01-15T11:51:45.924Z,4.30
2019-01-15T11:52:45.912Z,3.90
2019-01-15T11:53:45.944Z,5.60
2019-01-15T11:54:45.890Z,4.10
2019-01-15T11:55:45.876Z,3.80
2019-01-15T11:56:45.919Z,2.90
2019-01-15T11:57:45.860Z,3.00
2019-01-15T11:58:45.852Z,3.50
2019-01-15T11:59:45.841Z,3.40
2019-01-15T12:00:45.866Z,3.10
2019-01-15T12:01:45.823Z,2.70
2019-01-15T12:02:45.821Z,2.80
2019-01-15T12:03:45.794Z,3.20
2019-01-15T12:04:45.783Z,3.50
2019-01-15T12:05:45.870Z,4.00
2019-01-15T12:06:45.764Z,3.70
2019-01-15T12:07:45.749Z,4.20
2019-01-15T12:08:45.785Z,3.40
2019-01-15T12:09:45.729Z,3.50
2019-01-15T12:10:45.758Z,2.90
2019-01-15T12:11:45.709Z,3.60
2019-01-15T12:12:45.704Z,3.30
2019-01-15T12:13:45.686Z,4.90
2019-01-15T12:14:45.695Z,2.90
2019-01-15T12:15:45.688Z,2.90
2019-01-15T12:16:45.654Z,3.00
2019-01-15T12:17:45.645Z,3.00
2019-01-15T12:18:45.637Z,3.10
2019-01-15T12:19:45.651Z,2.30
2019-01-15T12:20:45.626Z,2.60
2019-01-15T12:21:45.626Z,3.00
2019-01-15T12:22:45.583Z,3.20
2019-01-15T12:23:45.572Z,3.00
2019-01-15T12:24:45.559Z,2.80
2019-01-15T12:25:45.553Z,3.20
2019-01-15T12:26:45.577Z,3.50
2019-01-15T12:27:45.530Z,2.80
2019-01-15T12:28:45.576Z,3.30
2019-01-15T12:29:45.536Z,3.70
2019-01-15T12:30:45.490Z,3.20
2019-01-15T12:31:45.477Z,3.80
2019-01-15T12:32:45.485Z,2.90
2019-01-15T12:33:45.458Z,3.60
2019-01-15T12:34:45.481Z,2.60
2019-01-15T12:35:45.441Z,4.00
2019-01-15T12:36:45.426Z,3.60
2019-01-15T12:37:45.409Z,3.50
2019-01-15T12:38:45.472Z,3.80
2019-01-15T12:39:45.393Z,3.10
2019-01-15T12:40:45.380Z,4.60
2019-01-15T12:41:45.374Z,3.40
2019-01-15T12:42:45.355Z,2.70
2019-01-15T12:43:45.380Z,2.90
2019-01-15T12:44:45.349Z,2.90
2019-01-15T12:45:45.356Z,3.20
2019-01-15T12:46:45.951Z,2.70
2019-01-15T12:47:45.303Z,2.70
2019-01-15T12:48:45.289Z,3.40
2019-01-15T12:49:45.279Z,3.50
2019-01-15T12:50:45.398Z,3.40
2019-01-15T12:51:45.278Z,3.50
2019-01-15T12:52:45.243Z,3.90
2019-01-15T12:53:45.230Z,3.10
2019-01-15T12:54:45.222Z,3.50
2019-01-15T12:55:45.242Z,2.70
2019-01-15T12:56:45.222Z,2.80
2019-01-15T12:57:45.221Z,2.90
2019-01-15T12:58:45.174Z,3.20
2019-01-15T12:59:45.172Z,2.80
2019-01-15T13:00:45.146Z,2.90
2019-01-15T13:01:45.144Z,2.80
2019-01-15T13:02:45.186Z,2.80
2019-01-15T13:03:45.125Z,2.90
2019-01-15T13:04:45.929Z,3.10
2019-01-15T13:05:45.105Z,3.50
2019-01-15T13:06:45.118Z,3.40
2019-01-15T13:07:45.955Z,3.30
2019-01-15T13:08:45.113Z,2.40
2019-01-15T13:09:45.056Z,2.50
2019-01-15T13:10:45.042Z,2.20
2019-01-15T13:11:45.030Z,2.20
2019-01-15T13:12:45.040Z,3.10
2019-01-15T13:13:45.011Z,3.10
2019-01-15T13:14:45.022Z,3.40
2019-01-15T13:15:44.989Z,3.90
2019-01-15T13:16:44.976Z,3.10
2019-01-15T13:17:44.996Z,3.30
2019-01-15T13:18:44.957Z,2.80